Time;durP1;ratioP1;P1;durP2;ratioP2;P2;SDS_P1;SDS_P2;PMS_P1;PMS_P2;Temp;Humidity;BMP_temperature;BMP_pressure;BME280_temperature;BME280_humidity;BME280_pressure;Samples;Min_cycle;Max_cycle;Signal;HPM_P1;HPM_P2
2021/10/17 00:00:01;;;;;;;0.97;0.90;;;;;;;;;;5044619;28;20032;-78
2021/10/17 00:02:49;;;;;;;0.55;0.55;;;;;;;;;;5044533;28;20021;-77
2021/10/17 00:05:16;;;;;;;0.17;0.17;;;;;;;;;;5033913;28;20045;-79
2021/10/17 00:07:43;;;;;;;0.35;0.32;;;;;;;;;;5038967;28;20021;-78
2021/10/17 00:10:09;;;;;;;;;;;;;;;;;;5042680;28;20563;-78
2021/10/17 00:12:35;;;;;;;0.20;0.20;;;;;;;;;;5043807;28;20007;-78
2021/10/17 00:15:01;;;;;;;0.40;0.40;;;;;;;;;;5045074;28;20059;-78
2021/10/17 00:17:28;;;;;;;1.15;0.65;;;;;;;;;;5044561;28;20033;-78
2021/10/17 00:19:54;;;;;;;4.55;0.95;;;;;;;;;;5041814;28;20024;-78
2021/10/17 00:22:20;;;;;;;0.65;0.65;;;;;;;;;;5041956;28;20025;-79
2021/10/17 00:24:46;;;;;;;0.93;0.87;;;;;;;;;;5041933;28;20049;-78
2021/10/17 00:27:12;;;;;;;1.43;0.63;;;;;;;;;;5046323;28;20450;-76
2021/10/17 00:29:39;;;;;;;1.75;0.47;;;;;;;;;;5044149;28;20051;-76
2021/10/17 00:32:08;;;;;;;0.10;0.10;;;;;;;;;;5041919;28;20396;-77
2021/10/17 00:34:34;;;;;;;0.20;0.20;;;;;;;;;;5041583;28;20028;-75
2021/10/17 00:37:00;;;;;;;0.23;0.23;;;;;;;;;;5042356;28;20032;-75
2021/10/17 00:39:26;;;;;;;1.20;0.77;;;;;;;;;;5044662;28;20033;-75
2021/10/17 00:41:53;;;;;;;0.95;0.95;;;;;;;;;;5044601;28;20029;-77
2021/10/17 00:44:21;;;;;;;0.13;0.13;;;;;;;;;;5043145;28;20107;-77
2021/10/17 00:46:47;;;;;;;0.30;0.30;;;;;;;;;;5043811;28;20025;-77
2021/10/17 00:49:13;;;;;;;0.28;0.28;;;;;;;;;;5045812;28;20491;-76
2021/10/17 00:51:41;;;;;;;0.17;0.17;;;;;;;;;;5046982;28;20025;-76
2021/10/17 00:54:07;;;;;;;0.35;0.35;;;;;;;;;;5049381;28;20029;-76
2021/10/17 00:56:33;;;;;;;0.80;0.80;;;;;;;;;;5048125;28;20094;-75
2021/10/17 00:58:59;;;;;;;0.55;0.55;;;;;;;;;;5045601;28;20028;-75
2021/10/17 01:01:25;;;;;;;0.20;0.20;;;;;;;;;;5045649;28;20422;-76
2021/10/17 01:03:51;;;;;;;0.10;0.10;;;;;;;;;;5045667;28;20032;-75
2021/10/17 01:06:17;;;;;;;1.08;0.82;;;;;;;;;;5049602;28;20033;-75
2021/10/17 01:08:43;;;;;;;0.52;0.52;;;;;;;;;;5048455;28;20029;-76
2021/10/17 01:11:09;;;;;;;0.10;0.10;;;;;;;;;;5045756;28;20112;-76
2021/10/17 01:13:36;;;;;;;0.53;0.53;;;;;;;;;;5045421;28;20423;-77
2021/10/17 01:16:02;;;;;;;0.17;0.17;;;;;;;;;;5045254;28;20392;-77
2021/10/17 01:18:28;;;;;;;2.85;1.45;;;;;;;;;;5048226;28;20036;-77
2021/10/17 01:20:54;;;;;;;0.38;0.38;;;;;;;;;;5046675;28;20064;-77
2021/10/17 01:23:20;;;;;;;0.70;0.70;;;;;;;;;;5046848;28;20025;-77
2021/10/17 01:25:47;;;;;;;0.52;0.52;;;;;;;;;;5044912;28;20049;-77
2021/10/17 01:28:13;;;;;;;2.55;1.35;;;;;;;;;;5045258;28;20036;-78
2021/10/17 01:30:40;;;;;;;0.28;0.22;;;;;;;;;;5046518;28;20053;-77
2021/10/17 01:33:06;;;;;;;0.50;0.40;;;;;;;;;;5048451;28;20041;-77
2021/10/17 01:35:33;;;;;;;0.10;0.10;;;;;;;;;;5031533;28;20412;-76
2021/10/17 01:37:59;;;;;;;0.25;0.25;;;;;;;;;;5043714;28;20100;-77
2021/10/17 01:40:25;;;;;;;0.30;0.30;;;;;;;;;;5044904;28;20071;-77
2021/10/17 01:42:51;;;;;;;0.13;0.13;;;;;;;;;;5044962;28;20025;-77
2021/10/17 01:45:17;;;;;;;0.20;0.20;;;;;;;;;;5047132;28;20108;-76
2021/10/17 01:47:47;;;;;;;0.60;0.60;;;;;;;;;;5035788;28;20069;-77
2021/10/17 01:50:13;;;;;;;2.72;0.95;;;;;;;;;;5036636;28;20063;-76
2021/10/17 01:52:39;;;;;;;0.10;0.10;;;;;;;;;;5038145;28;20028;-77
2021/10/17 01:55:06;;;;;;;0.15;0.15;;;;;;;;;;5044494;28;20554;-77
2021/10/17 01:57:32;;;;;;;1.20;1.02;;;;;;;;;;5046067;28;20127;-76
2021/10/17 01:59:58;;;;;;;0.50;0.47;;;;;;;;;;5047331;28;20032;-77
2021/10/17 02:02:24;;;;;;;1.08;1.08;;;;;;;;;;5049997;28;20029;-77
2021/10/17 02:04:50;;;;;;;0.15;0.15;;;;;;;;;;5044556;28;20025;-77
2021/10/17 02:07:16;;;;;;;0.50;0.50;;;;;;;;;;5044493;28;20029;-77
2021/10/17 02:09:42;;;;;;;0.20;0.20;;;;;;;;;;5044329;28;20031;-76
2021/10/17 02:12:08;;;;;;;0.60;0.60;;;;;;;;;;5048043;28;20040;-76
2021/10/17 02:14:37;;;;;;;0.03;0.03;;;;;;;;;;5046382;28;20396;-76
2021/10/17 02:17:07;;;;;;;0.25;0.25;;;;;;;;;;5036128;28;20041;-76
2021/10/17 02:19:33;;;;;;;0.43;0.43;;;;;;;;;;5039092;28;20040;-75
2021/10/17 02:21:59;;;;;;;0.43;0.43;;;;;;;;;;5043685;28;20034;-76
2021/10/17 02:24:25;;;;;;;0.55;0.55;;;;;;;;;;5046635;28;20102;-76
2021/10/17 02:26:51;;;;;;;0.75;0.75;;;;;;;;;;5045834;28;20163;-76
2021/10/17 02:29:17;;;;;;;0.70;0.50;;;;;;;;;;5045137;28;20370;-77
2021/10/17 02:31:43;;;;;;;0.45;0.40;;;;;;;;;;5043854;28;20107;-77
2021/10/17 02:34:09;;;;;;;0.43;0.43;;;;;;;;;;5042554;28;20052;-77
2021/10/17 02:36:35;;;;;;;1.03;0.67;;;;;;;;;;5045662;28;20034;-76
2021/10/17 02:39:01;;;;;;;0.10;0.10;;;;;;;;;;5047304;28;20411;-76
2021/10/17 02:41:27;;;;;;;0.38;0.38;;;;;;;;;;5046089;28;20022;-76
2021/10/17 02:43:53;;;;;;;0.40;0.40;;;;;;;;;;5043719;28;20037;-76
2021/10/17 02:46:19;;;;;;;2.45;1.50;;;;;;;;;;5043647;28;20061;-76
2021/10/17 02:48:45;;;;;;;0.43;0.35;;;;;;;;;;5044168;28;20095;-77
2021/10/17 02:51:12;;;;;;;0.35;0.35;;;;;;;;;;5047923;28;20036;-76
2021/10/17 02:53:38;;;;;;;;;;;;;;;;;;5046327;28;20545;-77
2021/10/17 02:56:04;;;;;;;0.47;0.47;;;;;;;;;;5043210;28;19917;-76
2021/10/17 02:58:30;;;;;;;0.28;0.28;;;;;;;;;;5043538;28;20512;-77
2021/10/17 03:00:57;;;;;;;0.10;0.10;;;;;;;;;;5046331;28;20036;-76
2021/10/17 03:03:23;;;;;;;0.27;0.27;;;;;;;;;;5032427;28;20133;-76
2021/10/17 03:05:49;;;;;;;0.35;0.35;;;;;;;;;;5045593;28;20040;-77
2021/10/17 03:08:15;;;;;;;0.63;0.63;;;;;;;;;;5043689;28;20029;-76
2021/10/17 03:10:41;;;;;;;0.20;0.20;;;;;;;;;;5042771;28;20400;-77
2021/10/17 03:13:07;;;;;;;0.35;0.30;;;;;;;;;;5043095;28;20099;-77
2021/10/17 03:15:33;;;;;;;0.10;0.10;;;;;;;;;;5045894;28;20748;-76
2021/10/17 03:17:59;;;;;;;0.45;0.45;;;;;;;;;;5031564;28;20563;-77
2021/10/17 03:20:25;;;;;;;0.20;0.20;;;;;;;;;;5034016;28;20051;-76
2021/10/17 03:22:51;;;;;;;0.30;0.30;;;;;;;;;;5040509;28;20021;-76
2021/10/17 03:25:17;;;;;;;0.08;0.08;;;;;;;;;;5042743;28;20049;-76
2021/10/17 03:27:43;;;;;;;0.00;0.00;;;;;;;;;;5043326;28;20496;-77
2021/10/17 03:30:09;;;;;;;0.20;0.20;;;;;;;;;;5046779;28;20418;-77
2021/10/17 03:32:35;;;;;;;4.33;1.27;;;;;;;;;;5045093;28;20077;-77
2021/10/17 03:35:03;;;;;;;0.67;0.63;;;;;;;;;;5042804;28;20040;-77
2021/10/17 03:37:32;;;;;;;0.35;0.35;;;;;;;;;;5043194;28;20066;-77
2021/10/17 03:39:58;;;;;;;1.25;1.15;;;;;;;;;;5042507;28;20083;-77
2021/10/17 03:42:24;;;;;;;0.13;0.13;;;;;;;;;;5046029;28;20388;-76
2021/10/17 03:44:50;;;;;;;0.70;0.70;;;;;;;;;;5045302;28;20033;-76
2021/10/17 03:47:16;;;;;;;0.20;0.20;;;;;;;;;;5043220;28;20122;-76
2021/10/17 03:49:42;;;;;;;0.30;0.30;;;;;;;;;;5042266;28;20028;-76
2021/10/17 03:52:08;;;;;;;0.45;0.45;;;;;;;;;;5042107;28;20029;-77
2021/10/17 03:54:34;;;;;;;0.20;0.20;;;;;;;;;;5044277;28;20029;-76
2021/10/17 03:57:00;;;;;;;0.25;0.25;;;;;;;;;;5045223;28;20039;-76
2021/10/17 03:59:26;;;;;;;0.55;0.55;;;;;;;;;;5044465;28;20033;-76
2021/10/17 04:01:52;;;;;;;3.85;1.08;;;;;;;;;;5037733;28;20059;-76
2021/10/17 04:04:18;;;;;;;0.00;0.00;;;;;;;;;;5034945;28;20082;-76
2021/10/17 04:06:45;;;;;;;0.10;0.10;;;;;;;;;;5042769;28;20597;-76
2021/10/17 04:09:11;;;;;;;0.20;0.20;;;;;;;;;;5046180;28;20029;-77
2021/10/17 04:11:37;;;;;;;0.10;0.10;;;;;;;;;;5044428;28;20186;-77
2021/10/17 04:14:03;;;;;;;0.20;0.20;;;;;;;;;;5033847;28;20535;-77
2021/10/17 04:16:29;;;;;;;0.10;0.10;;;;;;;;;;5036803;28;20692;-76
2021/10/17 04:18:55;;;;;;;0.20;0.20;;;;;;;;;;5041697;28;20045;-76
2021/10/17 04:21:21;;;;;;;0.30;0.28;;;;;;;;;;5045827;28;20037;-77
2021/10/17 04:23:47;;;;;;;0.10;0.10;;;;;;;;;;5044573;28;20538;-76
2021/10/17 04:26:13;;;;;;;0.32;0.32;;;;;;;;;;5042442;28;20096;-77
2021/10/17 04:28:39;;;;;;;0.00;0.00;;;;;;;;;;5041956;28;20721;-77
2021/10/17 04:31:05;;;;;;;0.10;0.10;;;;;;;;;;5042266;28;20037;-77
2021/10/17 04:33:31;;;;;;;1.35;1.13;;;;;;;;;;5030621;28;20431;-77
2021/10/17 04:35:57;;;;;;;0.35;0.35;;;;;;;;;;5044601;28;20036;-77
2021/10/17 04:38:23;;;;;;;0.13;0.13;;;;;;;;;;5044290;28;20013;-76
2021/10/17 04:40:49;;;;;;;0.13;0.13;;;;;;;;;;5037864;28;20035;-76
2021/10/17 04:43:15;;;;;;;0.10;0.10;;;;;;;;;;5034266;28;20040;-77
2021/10/17 04:45:42;;;;;;;0.38;0.32;;;;;;;;;;5042484;28;20033;-78
2021/10/17 04:48:08;;;;;;;0.20;0.20;;;;;;;;;;5045750;28;20035;-77
2021/10/17 04:50:36;;;;;;;0.10;0.10;;;;;;;;;;5043965;28;20107;-77
2021/10/17 04:53:02;;;;;;;0.30;0.30;;;;;;;;;;5041614;28;20339;-78
2021/10/17 04:55:28;;;;;;;1.40;0.73;;;;;;;;;;5041570;28;20480;-77
2021/10/17 04:57:54;;;;;;;0.28;0.28;;;;;;;;;;5041896;28;20052;-77
2021/10/17 05:00:20;;;;;;;0.68;0.68;;;;;;;;;;5046428;28;20480;-77
2021/10/17 05:02:46;;;;;;;0.32;0.32;;;;;;;;;;5032199;28;20021;-77
2021/10/17 05:05:12;;;;;;;0.13;0.13;;;;;;;;;;5041561;28;20777;-77
2021/10/17 05:07:39;;;;;;;0.90;0.87;;;;;;;;;;5041870;28;20025;-78
2021/10/17 05:10:05;;;;;;;;;;;;;;;;;;5042017;28;20033;-78
2021/10/17 05:12:31;;;;;;;0.10;0.10;;;;;;;;;;5044388;28;19913;-77
2021/10/17 05:14:57;;;;;;;0.35;0.35;;;;;;;;;;5044081;28;20025;-78
2021/10/17 05:17:23;;;;;;;2.10;0.95;;;;;;;;;;5043682;28;20112;-77
2021/10/17 05:19:49;;;;;;;0.45;0.45;;;;;;;;;;5042577;28;20100;-77
2021/10/17 05:22:15;;;;;;;0.10;0.10;;;;;;;;;;5041904;28;20118;-77
2021/10/17 05:24:41;;;;;;;1.10;0.38;;;;;;;;;;5042683;28;20045;-77
2021/10/17 05:27:07;;;;;;;0.10;0.10;;;;;;;;;;5045035;28;20427;-77
2021/10/17 05:29:33;;;;;;;0.67;0.67;;;;;;;;;;5043866;28;20542;-77
2021/10/17 05:31:59;;;;;;;0.15;0.15;;;;;;;;;;5042364;28;20571;-78
2021/10/17 05:34:25;;;;;;;0.13;0.13;;;;;;;;;;5044917;28;20078;-77
2021/10/17 05:36:51;;;;;;;0.10;0.10;;;;;;;;;;5046102;28;20474;-77
2021/10/17 05:39:17;;;;;;;0.10;0.10;;;;;;;;;;5049459;28;20476;-77
2021/10/17 05:41:43;;;;;;;0.20;0.20;;;;;;;;;;5047887;28;20033;-75
2021/10/17 05:44:09;;;;;;;0.60;0.35;;;;;;;;;;5044910;28;20031;-76
2021/10/17 05:46:35;;;;;;;0.40;0.40;;;;;;;;;;5044986;28;20041;-75
2021/10/17 05:49:01;;;;;;;0.10;0.10;;;;;;;;;;5044957;28;20044;-74
2021/10/17 05:51:27;;;;;;;0.00;0.00;;;;;;;;;;5048298;28;20025;-75
2021/10/17 05:53:53;;;;;;;0.10;0.10;;;;;;;;;;5047287;28;20480;-74
2021/10/17 05:56:19;;;;;;;0.10;0.10;;;;;;;;;;5046056;28;20036;-74
2021/10/17 05:58:45;;;;;;;1.25;0.88;;;;;;;;;;5044868;28;20033;-75
2021/10/17 06:01:11;;;;;;;0.10;0.10;;;;;;;;;;5048632;28;20033;-75
2021/10/17 06:03:37;;;;;;;0.03;0.03;;;;;;;;;;5043585;28;20083;-76
2021/10/17 06:06:05;;;;;;;0.43;0.35;;;;;;;;;;5042144;28;20045;-77
2021/10/17 06:08:31;;;;;;;0.25;0.17;;;;;;;;;;5047557;28;20589;-76
2021/10/17 06:10:57;;;;;;;0.10;0.10;;;;;;;;;;5042711;28;20412;-75
2021/10/17 06:13:23;;;;;;;0.10;0.10;;;;;;;;;;5042170;28;20029;-76
2021/10/17 06:15:49;;;;;;;0.10;0.10;;;;;;;;;;5043606;28;20032;-77
2021/10/17 06:18:16;;;;;;;0.17;0.17;;;;;;;;;;5043482;28;20033;-77
2021/10/17 06:20:42;;;;;;;0.00;0.00;;;;;;;;;;5045019;28;20444;-77
2021/10/17 06:23:08;;;;;;;0.40;0.40;;;;;;;;;;5038532;28;20029;-76
2021/10/17 06:25:34;;;;;;;0.45;0.45;;;;;;;;;;5040317;28;20443;-75
2021/10/17 06:28:01;;;;;;;0.25;0.25;;;;;;;;;;5041697;28;20094;-76
2021/10/17 06:30:27;;;;;;;0.00;0.00;;;;;;;;;;5040883;28;20065;-75
2021/10/17 06:32:53;;;;;;;0.30;0.30;;;;;;;;;;5042912;28;20029;-76
2021/10/17 06:35:19;;;;;;;0.10;0.10;;;;;;;;;;5040233;28;20025;-76
2021/10/17 06:37:45;;;;;;;1.20;1.10;;;;;;;;;;5040221;28;20036;-76
2021/10/17 06:40:12;;;;;;;0.33;0.33;;;;;;;;;;5038130;28;20147;-75
2021/10/17 06:42:38;;;;;;;0.10;0.10;;;;;;;;;;5039381;28;20037;-76
2021/10/17 06:45:05;;;;;;;0.20;0.20;;;;;;;;;;5043297;28;20574;-77
2021/10/17 06:47:31;;;;;;;0.98;0.75;;;;;;;;;;5042259;28;20037;-77
2021/10/17 06:49:57;;;;;;;3.22;1.45;;;;;;;;;;5039747;28;20025;-77
2021/10/17 06:52:23;;;;;;;0.30;0.30;;;;;;;;;;5040043;28;20025;-77
2021/10/17 06:54:49;;;;;;;0.20;0.20;;;;;;;;;;5040133;28;20105;-77
2021/10/17 06:57:15;;;;;;;0.73;0.70;;;;;;;;;;5028538;28;20030;-77
2021/10/17 06:59:41;;;;;;;0.13;0.13;;;;;;;;;;5041841;28;20478;-77
2021/10/17 07:02:07;;;;;;;0.20;0.20;;;;;;;;;;5033805;28;20113;-77
2021/10/17 07:04:33;;;;;;;0.30;0.30;;;;;;;;;;5033772;28;20035;-76
2021/10/17 07:06:59;;;;;;;0.30;0.30;;;;;;;;;;5039943;28;20069;-76
2021/10/17 07:09:25;;;;;;;0.10;0.10;;;;;;;;;;5044157;28;20040;-76
2021/10/17 07:11:52;;;;;;;0.20;0.20;;;;;;;;;;5029642;28;20284;-76
2021/10/17 07:14:18;;;;;;;21.25;1.00;;;;;;;;;;5040721;28;20043;-75
2021/10/17 07:16:44;;;;;;;0.10;0.10;;;;;;;;;;5039912;28;20107;-78
2021/10/17 07:19:10;;;;;;;0.30;0.30;;;;;;;;;;5039800;28;20191;-77
2021/10/17 07:21:36;;;;;;;0.10;0.10;;;;;;;;;;5042888;28;20104;-78
2021/10/17 07:24:02;;;;;;;0.10;0.10;;;;;;;;;;5040718;28;20114;-76
2021/10/17 07:26:29;;;;;;;0.50;0.50;;;;;;;;;;5040256;28;20044;-77
2021/10/17 07:28:55;;;;;;;0.65;0.30;;;;;;;;;;5033475;28;20041;-77
2021/10/17 07:31:21;;;;;;;0.20;0.20;;;;;;;;;;5032549;28;20564;-77
2021/10/17 07:33:47;;;;;;;0.27;0.27;;;;;;;;;;5039666;28;20034;-77
2021/10/17 07:36:13;;;;;;;0.33;0.33;;;;;;;;;;5044010;28;20028;-78
2021/10/17 07:38:39;;;;;;;0.00;0.00;;;;;;;;;;5041350;28;20267;-76
2021/10/17 07:41:05;;;;;;;0.20;0.20;;;;;;;;;;5037012;28;20514;-79
2021/10/17 07:43:31;;;;;;;0.20;0.20;;;;;;;;;;5039213;28;20088;-79
2021/10/17 07:46:01;;;;;;;0.30;0.30;;;;;;;;;;5039424;28;20045;-80
2021/10/17 07:48:27;;;;;;;0.32;0.32;;;;;;;;;;5042450;28;20075;-77
2021/10/17 07:50:53;;;;;;;0.30;0.30;;;;;;;;;;5028614;28;20105;-78
2021/10/17 07:53:19;;;;;;;0.20;0.20;;;;;;;;;;5040752;28;20116;-76
2021/10/17 07:55:45;;;;;;;0.20;0.20;;;;;;;;;;5038804;28;20112;-77
2021/10/17 07:58:11;;;;;;;0.30;0.30;;;;;;;;;;5042570;28;20275;-77
2021/10/17 08:00:37;;;;;;;0.32;0.32;;;;;;;;;;5043657;28;20091;-77
2021/10/17 08:03:04;;;;;;;0.20;0.20;;;;;;;;;;5027310;28;20036;-79
2021/10/17 08:05:30;;;;;;;0.50;0.50;;;;;;;;;;5041119;28;20390;-79
2021/10/17 08:07:56;;;;;;;0.30;0.30;;;;;;;;;;5038749;28;20059;-78
2021/10/17 08:10:22;;;;;;;0.17;0.17;;;;;;;;;;5038282;28;20025;-77
2021/10/17 08:12:48;;;;;;;0.13;0.13;;;;;;;;;;5039388;28;20330;-77
2021/10/17 08:15:14;;;;;;;0.23;0.23;;;;;;;;;;5042468;28;20284;-78
2021/10/17 08:17:40;;;;;;;0.20;0.20;;;;;;;;;;5030787;28;20053;-79
2021/10/17 08:20:07;;;;;;;0.90;0.20;;;;;;;;;;5031010;28;20075;-79
2021/10/17 08:22:34;;;;;;;1.13;0.45;;;;;;;;;;5031172;28;20036;-78
2021/10/17 08:25:01;;;;;;;4.90;0.50;;;;;;;;;;5029288;28;20081;-78
2021/10/17 08:27:27;;;;;;;0.40;0.40;;;;;;;;;;5042342;28;20033;-78
2021/10/17 08:29:53;;;;;;;0.20;0.20;;;;;;;;;;5044350;28;20132;-77
2021/10/17 08:32:19;;;;;;;0.10;0.10;;;;;;;;;;5043624;28;20362;-78
2021/10/17 08:34:45;;;;;;;0.73;0.73;;;;;;;;;;5038564;28;20047;-77
2021/10/17 08:37:11;;;;;;;0.15;0.15;;;;;;;;;;5038708;28;20279;-77
2021/10/17 08:39:38;;;;;;;1.13;0.52;;;;;;;;;;5040103;28;20112;-79
2021/10/17 08:42:04;;;;;;;0.10;0.10;;;;;;;;;;5041339;28;20033;-78
2021/10/17 08:44:30;;;;;;;0.10;0.10;;;;;;;;;;5040902;28;20486;-78
2021/10/17 08:46:59;;;;;;;0.35;0.35;;;;;;;;;;5036938;28;20037;-78
2021/10/17 08:49:26;;;;;;;2.53;0.90;;;;;;;;;;5038291;28;20460;-79
2021/10/17 08:51:52;;;;;;;0.32;0.32;;;;;;;;;;5027045;28;20029;-78
2021/10/17 08:54:18;;;;;;;0.20;0.20;;;;;;;;;;5042393;28;20033;-77
2021/10/17 08:56:44;;;;;;;0.80;0.55;;;;;;;;;;5035406;28;20029;-76
2021/10/17 08:59:10;;;;;;;0.32;0.32;;;;;;;;;;5038025;28;20041;-79
2021/10/17 09:01:37;;;;;;;2.40;0.95;;;;;;;;;;5036280;28;20028;-79
2021/10/17 09:04:05;;;;;;;0.80;0.38;;;;;;;;;;5029503;28;20483;-78
2021/10/17 09:06:35;;;;;;;0.15;0.15;;;;;;;;;;5027083;28;20530;-78
2021/10/17 09:09:20;;;;;;;0.43;0.43;;;;;;;;;;5031130;28;20202;-79
2021/10/17 09:11:52;;;;;;;1.10;0.75;;;;;;;;;;5044904;28;20029;-79
2021/10/17 09:14:19;;;;;;;0.20;0.20;;;;;;;;;;5036700;28;20064;-78
2021/10/17 09:16:49;;;;;;;0.10;0.10;;;;;;;;;;5038196;28;20018;-79
2021/10/17 09:19:21;;;;;;;0.47;0.47;;;;;;;;;;5036400;28;20047;-79
2021/10/17 09:22:07;;;;;;;0.52;0.20;;;;;;;;;;5033198;28;20025;-79
2021/10/17 09:24:37;;;;;;;0.50;0.50;;;;;;;;;;5030901;28;20037;-79
2021/10/17 09:27:11;;;;;;;0.30;0.30;;;;;;;;;;5030264;28;20268;-79
2021/10/17 09:29:38;;;;;;;0.15;0.13;;;;;;;;;;5032950;28;20041;-79
2021/10/17 09:32:17;;;;;;;0.10;0.10;;;;;;;;;;5039822;28;20037;-79
2021/10/17 09:34:55;;;;;;;0.32;0.32;;;;;;;;;;5036945;28;20033;-79
2021/10/17 09:37:29;;;;;;;0.10;0.10;;;;;;;;;;5032974;28;20029;-80
2021/10/17 09:40:01;;;;;;;0.10;0.10;;;;;;;;;;5032693;28;20104;-80
2021/10/17 09:42:29;;;;;;;0.20;0.20;;;;;;;;;;5029557;28;20037;-79
2021/10/17 09:44:55;;;;;;;1.85;0.38;;;;;;;;;;5031250;28;20058;-80
2021/10/17 09:47:21;;;;;;;0.40;0.40;;;;;;;;;;5032975;28;20037;-79
2021/10/17 09:49:52;;;;;;;0.20;0.20;;;;;;;;;;5032072;28;20030;-77
2021/10/17 09:52:20;;;;;;;0.28;0.28;;;;;;;;;;5033371;28;20064;-77
2021/10/17 09:54:47;;;;;;;0.13;0.13;;;;;;;;;;5029884;28;20588;-75
2021/10/17 09:57:13;;;;;;;0.10;0.10;;;;;;;;;;5045453;28;20031;-77
2021/10/17 09:59:39;;;;;;;0.10;0.10;;;;;;;;;;5029754;28;20350;-77
2021/10/17 10:02:08;;;;;;;0.08;0.08;;;;;;;;;;5035049;28;20033;-78
2021/10/17 10:04:35;;;;;;;0.10;0.10;;;;;;;;;;5036926;28;20057;-76
2021/10/17 10:07:01;;;;;;;;;;;;;;;;;;5044472;28;20060;-77
2021/10/17 10:09:28;;;;;;;0.32;0.32;;;;;;;;;;5047108;28;20276;-77
2021/10/17 10:11:54;;;;;;;0.20;0.20;;;;;;;;;;5047506;28;20032;-77
2021/10/17 10:14:20;;;;;;;0.13;0.13;;;;;;;;;;5045284;28;20074;-77
2021/10/17 10:16:51;;;;;;;0.20;0.20;;;;;;;;;;5043866;28;20103;-78
2021/10/17 10:19:18;;;;;;;2.40;0.20;;;;;;;;;;5043334;28;20025;-77
2021/10/17 10:21:44;;;;;;;0.88;0.47;;;;;;;;;;5048280;28;20028;-77
2021/10/17 10:24:13;;;;;;;0.10;0.10;;;;;;;;;;5047072;28;20068;-78
2021/10/17 10:26:43;;;;;;;0.13;0.13;;;;;;;;;;5046430;28;20051;-77
2021/10/17 10:29:09;;;;;;;0.30;0.30;;;;;;;;;;5044186;28;20025;-77
2021/10/17 10:31:41;;;;;;;0.13;0.13;;;;;;;;;;5040934;28;20119;-77
2021/10/17 10:34:07;;;;;;;0.20;0.20;;;;;;;;;;5040026;28;20033;-77
2021/10/17 10:36:43;;;;;;;0.03;0.03;;;;;;;;;;5042304;28;20106;-77
2021/10/17 10:39:11;;;;;;;0.30;0.30;;;;;;;;;;5043633;28;20041;-78
2021/10/17 10:41:45;;;;;;;0.38;0.35;;;;;;;;;;5042435;28;20017;-77
2021/10/17 10:44:21;;;;;;;0.10;0.10;;;;;;;;;;5043786;28;20029;-77
2021/10/17 10:46:49;;;;;;;0.43;0.20;;;;;;;;;;5040271;28;20041;-77
2021/10/17 10:49:33;;;;;;;0.40;0.40;;;;;;;;;;5039546;28;20040;-77
2021/10/17 10:52:00;;;;;;;4.00;0.60;;;;;;;;;;5038651;28;20128;-77
2021/10/17 10:54:26;;;;;;;0.10;0.10;;;;;;;;;;5043916;28;20028;-80
2021/10/17 10:56:52;;;;;;;0.10;0.10;;;;;;;;;;5045766;28;20483;-76
2021/10/17 10:59:18;;;;;;;;;;;;;;;;;;5040567;28;20029;-77
2021/10/17 11:01:54;;;;;;;0.60;0.35;;;;;;;;;;5042649;28;19944;-78
2021/10/17 11:04:35;;;;;;;0.10;0.10;;;;;;;;;;5036640;28;20034;-76
2021/10/17 11:07:17;;;;;;;0.08;0.08;;;;;;;;;;5039442;28;20048;-78
2021/10/17 11:09:43;;;;;;;3.22;0.50;;;;;;;;;;5041110;28;20221;-77
2021/10/17 11:12:09;;;;;;;0.27;0.27;;;;;;;;;;5033278;28;20033;-76
2021/10/17 11:14:35;;;;;;;0.17;0.17;;;;;;;;;;5036003;28;20273;-75
2021/10/17 11:17:06;;;;;;;0.30;0.28;;;;;;;;;;5040441;28;20025;-76
2021/10/17 11:19:32;;;;;;;1.02;0.55;;;;;;;;;;5035272;28;20075;-77
2021/10/17 11:22:01;;;;;;;0.37;0.37;;;;;;;;;;5034160;28;20036;-77
2021/10/17 11:24:27;;;;;;;0.22;0.22;;;;;;;;;;5028442;28;20719;-77
2021/10/17 11:27:13;;;;;;;0.10;0.10;;;;;;;;;;5033062;28;20029;-77
2021/10/17 11:29:40;;;;;;;0.10;0.10;;;;;;;;;;5026080;28;20407;-77
2021/10/17 11:32:07;;;;;;;0.30;0.30;;;;;;;;;;5040211;28;20033;-77
2021/10/17 11:34:33;;;;;;;0.85;0.43;;;;;;;;;;5041427;28;20017;-77
2021/10/17 11:37:18;;;;;;;0.20;0.20;;;;;;;;;;5038709;28;20080;-77
2021/10/17 11:39:57;;;;;;;0.30;0.30;;;;;;;;;;5038516;28;20384;-77
2021/10/17 11:42:24;;;;;;;0.10;0.10;;;;;;;;;;5040366;28;20056;-77
2021/10/17 11:44:50;;;;;;;1.90;1.33;;;;;;;;;;5038612;28;20186;-77
2021/10/17 11:47:18;;;;;;;0.00;0.00;;;;;;;;;;5036015;28;20033;-77
2021/10/17 11:49:44;;;;;;;0.10;0.10;;;;;;;;;;5033253;28;20048;-77
2021/10/17 11:52:13;;;;;;;0.30;0.30;;;;;;;;;;5034816;28;20033;-77
2021/10/17 11:54:46;;;;;;;0.20;0.20;;;;;;;;;;5035319;28;20157;-78
2021/10/17 11:57:28;;;;;;;0.32;0.30;;;;;;;;;;5035542;28;20672;-78
2021/10/17 11:59:59;;;;;;;0.10;0.10;;;;;;;;;;5037276;28;20029;-77
2021/10/17 12:02:32;;;;;;;1.85;0.22;;;;;;;;;;5031162;28;20032;-77
2021/10/17 12:04:58;;;;;;;0.17;0.17;;;;;;;;;;5028031;28;20037;-77
2021/10/17 12:07:25;;;;;;;2.25;0.75;;;;;;;;;;5032614;28;20031;-76
2021/10/17 12:09:51;;;;;;;0.00;0.00;;;;;;;;;;5034611;28;20029;-76
2021/10/17 12:12:23;;;;;;;0.13;0.13;;;;;;;;;;5032706;28;20091;-77
2021/10/17 12:15:06;;;;;;;0.85;0.20;;;;;;;;;;5033457;28;20070;-77
2021/10/17 12:17:32;;;;;;;0.17;0.17;;;;;;;;;;5041266;28;20496;-77
2021/10/17 12:20:04;;;;;;;0.10;0.10;;;;;;;;;;5034106;28;20039;-77
2021/10/17 12:22:31;;;;;;;0.00;0.00;;;;;;;;;;5037160;28;20032;-77
2021/10/17 12:25:01;;;;;;;0.15;0.15;;;;;;;;;;5031130;28;20060;-77
2021/10/17 12:27:31;;;;;;;0.10;0.10;;;;;;;;;;5032501;28;20032;-77
2021/10/17 12:30:13;;;;;;;0.10;0.10;;;;;;;;;;5030079;28;20040;-77
2021/10/17 12:32:49;;;;;;;0.00;0.00;;;;;;;;;;5034166;28;20027;-77
2021/10/17 12:35:19;;;;;;;0.90;0.40;;;;;;;;;;5036620;28;20033;-77
2021/10/17 12:37:46;;;;;;;0.25;0.25;;;;;;;;;;5036401;28;20441;-77
2021/10/17 12:40:12;;;;;;;0.00;0.00;;;;;;;;;;5031000;28;20569;-77
2021/10/17 12:42:59;;;;;;;1.25;0.57;;;;;;;;;;5036546;28;20021;-77
2021/10/17 12:45:28;;;;;;;0.10;0.10;;;;;;;;;;5033446;28;20498;-76
2021/10/17 12:47:55;;;;;;;0.13;0.13;;;;;;;;;;5035807;28;20104;-77
2021/10/17 12:50:28;;;;;;;0.65;0.65;;;;;;;;;;5034360;28;20030;-77
2021/10/17 12:52:55;;;;;;;0.43;0.43;;;;;;;;;;5033541;28;20393;-77
2021/10/17 12:55:21;;;;;;;0.10;0.10;;;;;;;;;;5037213;28;20037;-77
2021/10/17 12:58:04;;;;;;;0.73;0.52;;;;;;;;;;5035637;28;20079;-77
2021/10/17 13:00:30;;;;;;;0.30;0.20;;;;;;;;;;5043681;28;20037;-77
2021/10/17 13:03:11;;;;;;;0.17;0.17;;;;;;;;;;5038262;28;20079;-78
2021/10/17 13:05:46;;;;;;;0.30;0.30;;;;;;;;;;5030438;28;20123;-77
2021/10/17 13:08:12;;;;;;;0.00;0.00;;;;;;;;;;5036759;28;20053;-77
2021/10/17 13:10:38;;;;;;;0.68;0.20;;;;;;;;;;5039290;28;20191;-77
2021/10/17 13:13:13;;;;;;;0.47;0.35;;;;;;;;;;5041676;28;20102;-77
2021/10/17 13:15:39;;;;;;;0.57;0.25;;;;;;;;;;5042412;28;20139;-78
2021/10/17 13:18:06;;;;;;;0.28;0.28;;;;;;;;;;5043822;28;20511;-75
2021/10/17 13:20:34;;;;;;;0.85;0.20;;;;;;;;;;5045876;28;20045;-81
2021/10/17 13:23:01;;;;;;;0.00;0.00;;;;;;;;;;5042993;28;20107;-78
2021/10/17 13:25:28;;;;;;;0.00;0.00;;;;;;;;;;5039358;28;20152;-80
2021/10/17 13:27:55;;;;;;;0.00;0.00;;;;;;;;;;5037370;28;20116;-80
2021/10/17 13:30:21;;;;;;;;;;;;;;;;;;5028375;28;20032;-79
2021/10/17 13:32:47;;;;;;;0.32;0.32;;;;;;;;;;5030496;28;19909;-80
2021/10/17 13:35:14;;;;;;;0.05;0.05;;;;;;;;;;5030644;28;20028;-78
2021/10/17 13:37:40;;;;;;;;;;;;;;;;;;5029871;28;20037;-80
2021/10/17 13:40:07;;;;;;;0.22;0.22;;;;;;;;;;5029221;28;19912;-80
2021/10/17 13:42:33;;;;;;;;;;;;;;;;;;5029822;28;20195;-80
2021/10/17 13:44:59;;;;;;;0.10;0.05;;;;;;;;;;5026968;28;20011;-79
2021/10/17 13:47:25;;;;;;;0.30;0.30;;;;;;;;;;5033391;28;20549;-80
2021/10/17 13:49:51;;;;;;;0.20;0.20;;;;;;;;;;5035054;28;20040;-81
2021/10/17 13:52:18;;;;;;;0.10;0.10;;;;;;;;;;5030865;28;20018;-80
2021/10/17 13:54:44;;;;;;;0.40;0.40;;;;;;;;;;5030145;28;20124;-80
2021/10/17 13:57:10;;;;;;;0.22;0.22;;;;;;;;;;5028311;28;20504;-80
2021/10/17 13:59:36;;;;;;;0.00;0.00;;;;;;;;;;5030080;28;20057;-80
2021/10/17 14:02:03;;;;;;;0.00;0.00;;;;;;;;;;5033190;28;20059;-80
2021/10/17 14:04:30;;;;;;;0.00;0.00;;;;;;;;;;5033597;28;20044;-80
2021/10/17 14:06:57;;;;;;;0.20;0.20;;;;;;;;;;5041950;28;20063;-80
2021/10/17 14:09:23;;;;;;;0.10;0.10;;;;;;;;;;5029664;28;20026;-80
2021/10/17 14:11:49;;;;;;;0.35;0.35;;;;;;;;;;5043421;28;20041;-80
2021/10/17 14:14:15;;;;;;;0.32;0.32;;;;;;;;;;5039081;28;20033;-79
2021/10/17 14:16:41;;;;;;;0.22;0.22;;;;;;;;;;5040956;28;20063;-80
2021/10/17 14:19:08;;;;;;;0.00;0.00;;;;;;;;;;5035300;28;20052;-80
2021/10/17 14:21:34;;;;;;;0.20;0.20;;;;;;;;;;5029055;28;20057;-80
2021/10/17 14:24:00;;;;;;;0.20;0.17;;;;;;;;;;5027457;28;20046;-80
2021/10/17 14:26:26;;;;;;;0.25;0.15;;;;;;;;;;5029095;28;20140;-80
2021/10/17 14:28:52;;;;;;;0.25;0.25;;;;;;;;;;5033993;28;20042;-80
2021/10/17 14:31:18;;;;;;;5.63;1.42;;;;;;;;;;5030720;28;20036;-80
2021/10/17 14:33:44;;;;;;;0.95;0.40;;;;;;;;;;5028446;28;20033;-80
2021/10/17 14:36:11;;;;;;;0.17;0.17;;;;;;;;;;5042457;28;20412;-80
2021/10/17 14:38:37;;;;;;;0.00;0.00;;;;;;;;;;5042491;28;20140;-81
2021/10/17 14:41:04;;;;;;;0.65;0.50;;;;;;;;;;5039518;28;20037;-80
2021/10/17 14:43:30;;;;;;;0.10;0.10;;;;;;;;;;5040366;28;20530;-80
2021/10/17 14:45:56;;;;;;;0.13;0.13;;;;;;;;;;5039918;28;20129;-80